Terminal Aerodrome Forecast
Issued by NWS

Home | Current Version | Previous Version | Text Only | Print | Product List | Glossary On
Versions: 1 2 3 4 5 6 7 8 9 10 11 12 13 14 15 16 17 18
000
FTUS45 KABQ 230000 AAA
TAFTCC
TAF AMD
KTCC 230030Z 2301/2324 04015G22KT 5SM -SN BR OVC015
      TEMPO 2301/2305 2SM SN OVC005
     FM230500 36010KT 3SM -SN BR OVC008
     FM231300 34012KT P6SM SCT015 SCT040
     FM231500 35025G35KT P6SM SCT040 SCT070=

USA.gov is the U.S. government's official web portal to all federal, state and local government web resources and services.